sensor_id;sensor_type;location;lat;lon;timestamp;temperature;humidity
3727;DHT22;1879;45.876;12.300;2023-05-14T00:09:29;14.10;99.90
3727;DHT22;1879;45.876;12.300;2023-05-14T00:12:42;14.20;99.90
3727;DHT22;1879;45.876;12.300;2023-05-14T00:15:09;14.20;99.90
3727;DHT22;1879;45.876;12.300;2023-05-14T00:17:40;14.20;99.90
3727;DHT22;1879;45.876;12.300;2023-05-14T00:20:09;14.20;99.90
3727;DHT22;1879;45.876;12.300;2023-05-14T00:22:36;14.20;99.90
3727;DHT22;1879;45.876;12.300;2023-05-14T00:25:05;14.20;99.90
3727;DHT22;1879;45.876;12.300;2023-05-14T00:27:32;14.10;99.90
3727;DHT22;1879;45.876;12.300;2023-05-14T00:30:01;14.10;99.90
3727;DHT22;1879;45.876;12.300;2023-05-14T00:32:28;14.10;99.90
3727;DHT22;1879;45.876;12.300;2023-05-14T00:34:55;14.20;99.90
3727;DHT22;1879;45.876;12.300;2023-05-14T00:37:21;14.20;99.90
3727;DHT22;1879;45.876;12.300;2023-05-14T00:39:48;14.30;99.90
3727;DHT22;1879;45.876;12.300;2023-05-14T00:42:15;14.30;99.90
3727;DHT22;1879;45.876;12.300;2023-05-14T00:44:42;14.20;99.90
3727;DHT22;1879;45.876;12.300;2023-05-14T00:47:11;14.10;99.90
3727;DHT22;1879;45.876;12.300;2023-05-14T00:49:38;14.00;99.90
3727;DHT22;1879;45.876;12.300;2023-05-14T00:52:06;13.90;99.90
3727;DHT22;1879;45.876;12.300;2023-05-14T00:54:33;13.80;99.90
3727;DHT22;1879;45.876;12.300;2023-05-14T00:57:01;13.70;99.90
3727;DHT22;1879;45.876;12.300;2023-05-14T00:59:28;13.60;99.90
3727;DHT22;1879;45.876;12.300;2023-05-14T01:01:56;13.60;99.90
3727;DHT22;1879;45.876;12.300;2023-05-14T01:04:24;13.60;99.90
3727;DHT22;1879;45.876;12.300;2023-05-14T01:07:00;13.60;99.90
3727;DHT22;1879;45.876;12.300;2023-05-14T01:09:35;13.70;99.90
3727;DHT22;1879;45.876;12.300;2023-05-14T01:12:13;13.70;99.90
3727;DHT22;1879;45.876;12.300;2023-05-14T01:14:46;13.80;99.90
3727;DHT22;1879;45.876;12.300;2023-05-14T01:17:15;13.90;99.90
3727;DHT22;1879;45.876;12.300;2023-05-14T01:19:46;14.00;99.90
3727;DHT22;1879;45.876;12.300;2023-05-14T01:22:14;14.10;99.90
3727;DHT22;1879;45.876;12.300;2023-05-14T01:24:42;14.10;99.90
3727;DHT22;1879;45.876;12.300;2023-05-14T01:27:15;14.20;99.90
3727;DHT22;1879;45.876;12.300;2023-05-14T01:29:48;14.30;99.90
3727;DHT22;1879;45.876;12.300;2023-05-14T01:32:19;14.40;99.90
3727;DHT22;1879;45.876;12.300;2023-05-14T01:34:49;14.40;99.90
3727;DHT22;1879;45.876;12.300;2023-05-14T01:37:18;14.50;99.90
3727;DHT22;1879;45.876;12.300;2023-05-14T01:39:46;14.40;99.90
3727;DHT22;1879;45.876;12.300;2023-05-14T01:42:14;14.50;99.90
3727;DHT22;1879;45.876;12.300;2023-05-14T01:44:41;14.50;99.90
3727;DHT22;1879;45.876;12.300;2023-05-14T01:47:08;14.50;99.90
3727;DHT22;1879;45.876;12.300;2023-05-14T01:49:36;14.50;99.90
3727;DHT22;1879;45.876;12.300;2023-05-14T01:52:04;14.60;99.90
3727;DHT22;1879;45.876;12.300;2023-05-14T01:54:33;14.60;99.90
3727;DHT22;1879;45.876;12.300;2023-05-14T01:57:00;14.50;99.90
3727;DHT22;1879;45.876;12.300;2023-05-14T01:59:27;14.50;99.90
3727;DHT22;1879;45.876;12.300;2023-05-14T02:01:54;14.50;99.90
3727;DHT22;1879;45.876;12.300;2023-05-14T02:04:21;14.50;99.90
3727;DHT22;1879;45.876;12.300;2023-05-14T02:06:48;14.60;99.90
3727;DHT22;1879;45.876;12.300;2023-05-14T02:09:15;14.60;99.90
3727;DHT22;1879;45.876;12.300;2023-05-14T02:11:43;14.60;99.90
3727;DHT22;1879;45.876;12.300;2023-05-14T02:14:10;14.60;99.90
3727;DHT22;1879;45.876;12.300;2023-05-14T02:16:37;14.60;99.90
3727;DHT22;1879;45.876;12.300;2023-05-14T02:19:04;14.40;99.90
3727;DHT22;1879;45.876;12.300;2023-05-14T02:21:31;14.30;99.90
3727;DHT22;1879;45.876;12.300;2023-05-14T02:23:58;14.10;99.90
3727;DHT22;1879;45.876;12.300;2023-05-14T02:26:25;14.10;99.90
3727;DHT22;1879;45.876;12.300;2023-05-14T02:28:53;14.20;99.90
3727;DHT22;1879;45.876;12.300;2023-05-14T02:31:20;14.30;99.90
3727;DHT22;1879;45.876;12.300;2023-05-14T02:33:47;14.40;99.90
3727;DHT22;1879;45.876;12.300;2023-05-14T02:36:14;14.50;99.90
3727;DHT22;1879;45.876;12.300;2023-05-14T02:38:41;14.50;99.90
3727;DHT22;1879;45.876;12.300;2023-05-14T02:41:08;14.50;99.90
3727;DHT22;1879;45.876;12.300;2023-05-14T02:43:35;14.40;99.90
3727;DHT22;1879;45.876;12.300;2023-05-14T02:46:03;14.40;99.90
3727;DHT22;1879;45.876;12.300;2023-05-14T02:48:30;14.30;99.90
3727;DHT22;1879;45.876;12.300;2023-05-14T02:50:57;14.20;99.90
3727;DHT22;1879;45.876;12.300;2023-05-14T02:53:24;14.10;99.90
3727;DHT22;1879;45.876;12.300;2023-05-14T02:55:51;14.10;99.90
3727;DHT22;1879;45.876;12.300;2023-05-14T02:58:18;14.10;99.90
3727;DHT22;1879;45.876;12.300;2023-05-14T03:00:45;14.10;99.90
3727;DHT22;1879;45.876;12.300;2023-05-14T03:03:13;14.00;99.90
3727;DHT22;1879;45.876;12.300;2023-05-14T03:05:41;14.00;99.90
3727;DHT22;1879;45.876;12.300;2023-05-14T03:08:09;14.00;99.90
3727;DHT22;1879;45.876;12.300;2023-05-14T03:10:36;14.00;99.90
3727;DHT22;1879;45.876;12.300;2023-05-14T03:13:03;14.00;99.90
3727;DHT22;1879;45.876;12.300;2023-05-14T03:15:30;13.90;99.90
3727;DHT22;1879;45.876;12.300;2023-05-14T03:17:57;13.90;99.90
3727;DHT22;1879;45.876;12.300;2023-05-14T03:20:25;13.90;99.90
3727;DHT22;1879;45.876;12.300;2023-05-14T03:22:53;14.00;99.90
3727;DHT22;1879;45.876;12.300;2023-05-14T03:25:20;14.00;99.90
3727;DHT22;1879;45.876;12.300;2023-05-14T03:27:47;13.90;99.90
3727;DHT22;1879;45.876;12.300;2023-05-14T03:30:14;13.90;99.90
3727;DHT22;1879;45.876;12.300;2023-05-14T03:32:41;13.90;99.90
3727;DHT22;1879;45.876;12.300;2023-05-14T03:35:08;13.90;99.90
3727;DHT22;1879;45.876;12.300;2023-05-14T03:37:37;13.90;99.90
3727;DHT22;1879;45.876;12.300;2023-05-14T03:40:05;13.80;99.90
3727;DHT22;1879;45.876;12.300;2023-05-14T03:42:32;13.80;99.90
3727;DHT22;1879;45.876;12.300;2023-05-14T03:44:59;13.80;99.90
3727;DHT22;1879;45.876;12.300;2023-05-14T03:47:26;13.80;99.90
3727;DHT22;1879;45.876;12.300;2023-05-14T03:49:53;13.80;99.90
3727;DHT22;1879;45.876;12.300;2023-05-14T03:52:20;13.70;99.90
3727;DHT22;1879;45.876;12.300;2023-05-14T03:54:48;13.70;99.90
3727;DHT22;1879;45.876;12.300;2023-05-14T03:57:15;13.70;99.90
3727;DHT22;1879;45.876;12.300;2023-05-14T03:59:42;13.80;99.90
3727;DHT22;1879;45.876;12.300;2023-05-14T04:02:09;13.70;99.90
3727;DHT22;1879;45.876;12.300;2023-05-14T04:04:36;13.80;99.90
3727;DHT22;1879;45.876;12.300;2023-05-14T04:07:03;13.80;99.90
3727;DHT22;1879;45.876;12.300;2023-05-14T04:09:30;13.80;99.90
3727;DHT22;1879;45.876;12.300;2023-05-14T04:11:59;13.80;99.90
3727;DHT22;1879;45.876;12.300;2023-05-14T04:14:25;13.90;99.90
3727;DHT22;1879;45.876;12.300;2023-05-14T04:16:52;13.90;99.90
3727;DHT22;1879;45.876;12.300;2023-05-14T04:19:19;14.00;99.90
3727;DHT22;1879;45.876;12.300;2023-05-14T04:21:46;14.00;99.90
3727;DHT22;1879;45.876;12.300;2023-05-14T04:24:13;14.00;99.90
3727;DHT22;1879;45.876;12.300;2023-05-14T04:26:40;14.10;99.90
3727;DHT22;1879;45.876;12.300;2023-05-14T04:29:09;14.10;99.90
3727;DHT22;1879;45.876;12.300;2023-05-14T04:31:36;14.10;99.90
3727;DHT22;1879;45.876;12.300;2023-05-14T04:34:04;14.10;99.90
3727;DHT22;1879;45.876;12.300;2023-05-14T04:36:31;14.10;99.90
3727;DHT22;1879;45.876;12.300;2023-05-14T04:38:58;14.10;99.90
3727;DHT22;1879;45.876;12.300;2023-05-14T04:41:25;14.10;99.90
3727;DHT22;1879;45.876;12.300;2023-05-14T04:43:55;14.10;99.90
3727;DHT22;1879;45.876;12.300;2023-05-14T04:46:23;14.10;99.90
3727;DHT22;1879;45.876;12.300;2023-05-14T04:48:50;14.10;99.90
3727;DHT22;1879;45.876;12.300;2023-05-14T04:51:17;14.20;99.90
3727;DHT22;1879;45.876;12.300;2023-05-14T04:53:44;14.20;99.90
3727;DHT22;1879;45.876;12.300;2023-05-14T04:56:11;14.20;99.90
3727;DHT22;1879;45.876;12.300;2023-05-14T04:58:38;14.30;99.90
3727;DHT22;1879;45.876;12.300;2023-05-14T05:01:05;14.40;99.90
3727;DHT22;1879;45.876;12.300;2023-05-14T05:03:33;14.50;99.90
3727;DHT22;1879;45.876;12.300;2023-05-14T05:06:00;14.60;99.90
3727;DHT22;1879;45.876;12.300;2023-05-14T05:08:27;14.70;99.90
3727;DHT22;1879;45.876;12.300;2023-05-14T05:10:57;14.80;99.90
3727;DHT22;1879;45.876;12.300;2023-05-14T05:13:24;14.80;99.90
3727;DHT22;1879;45.876;12.300;2023-05-14T05:15:51;14.90;99.90
3727;DHT22;1879;45.876;12.300;2023-05-14T05:18:18;14.90;99.90
3727;DHT22;1879;45.876;12.300;2023-05-14T05:20:46;15.00;99.90
3727;DHT22;1879;45.876;12.300;2023-05-14T05:23:13;15.00;99.90
3727;DHT22;1879;45.876;12.300;2023-05-14T05:25:40;15.10;99.90
3727;DHT22;1879;45.876;12.300;2023-05-14T05:28:07;15.10;99.90
3727;DHT22;1879;45.876;12.300;2023-05-14T05:30:34;15.10;99.90
3727;DHT22;1879;45.876;12.300;2023-05-14T05:33:01;15.20;99.90
3727;DHT22;1879;45.876;12.300;2023-05-14T05:35:28;15.20;99.90
3727;DHT22;1879;45.876;12.300;2023-05-14T05:37:56;15.20;99.90
3727;DHT22;1879;45.876;12.300;2023-05-14T05:40:24;15.20;99.90
3727;DHT22;1879;45.876;12.300;2023-05-14T05:42:51;15.30;99.90
3727;DHT22;1879;45.876;12.300;2023-05-14T05:45:17;15.30;99.90
3727;DHT22;1879;45.876;12.300;2023-05-14T05:47:44;15.40;99.90
3727;DHT22;1879;45.876;12.300;2023-05-14T05:50:11;15.30;99.90
3727;DHT22;1879;45.876;12.300;2023-05-14T05:52:39;15.40;99.90
3727;DHT22;1879;45.876;12.300;2023-05-14T05:55:08;15.40;99.90
3727;DHT22;1879;45.876;12.300;2023-05-14T05:57:35;15.40;99.90
3727;DHT22;1879;45.876;12.300;2023-05-14T06:00:03;15.40;99.90
3727;DHT22;1879;45.876;12.300;2023-05-14T06:02:37;15.50;99.90
3727;DHT22;1879;45.876;12.300;2023-05-14T06:05:05;15.60;99.90
3727;DHT22;1879;45.876;12.300;2023-05-14T06:07:32;15.60;99.90
3727;DHT22;1879;45.876;12.300;2023-05-14T06:10:00;15.70;99.90
3727;DHT22;1879;45.876;12.300;2023-05-14T06:12:28;15.70;99.90
3727;DHT22;1879;45.876;12.300;2023-05-14T06:14:55;15.70;99.90
3727;DHT22;1879;45.876;12.300;2023-05-14T06:17:23;15.80;99.90
3727;DHT22;1879;45.876;12.300;2023-05-14T06:19:50;16.00;99.90
3727;DHT22;1879;45.876;12.300;2023-05-14T06:22:17;16.10;99.90
3727;DHT22;1879;45.876;12.300;2023-05-14T06:24:44;16.20;99.90
3727;DHT22;1879;45.876;12.300;2023-05-14T06:27:11;16.30;99.90
3727;DHT22;1879;45.876;12.300;2023-05-14T06:29:40;16.40;99.90
3727;DHT22;1879;45.876;12.300;2023-05-14T06:32:07;16.50;99.90
3727;DHT22;1879;45.876;12.300;2023-05-14T06:34:34;16.50;99.90
3727;DHT22;1879;45.876;12.300;2023-05-14T06:37:01;16.40;99.90
3727;DHT22;1879;45.876;12.300;2023-05-14T06:39:28;16.30;99.90
3727;DHT22;1879;45.876;12.300;2023-05-14T06:41:55;16.30;99.90
3727;DHT22;1879;45.876;12.300;2023-05-14T06:44:22;16.30;99.90
3727;DHT22;1879;45.876;12.300;2023-05-14T06:46:51;16.30;99.90
3727;DHT22;1879;45.876;12.300;2023-05-14T06:49:18;16.20;99.90
3727;DHT22;1879;45.876;12.300;2023-05-14T06:51:45;16.30;99.90
3727;DHT22;1879;45.876;12.300;2023-05-14T06:54:12;16.40;99.90
3727;DHT22;1879;45.876;12.300;2023-05-14T06:56:39;16.50;99.90
3727;DHT22;1879;45.876;12.300;2023-05-14T06:59:06;16.70;99.90
3727;DHT22;1879;45.876;12.300;2023-05-14T07:01:33;16.70;99.90
3727;DHT22;1879;45.876;12.300;2023-05-14T07:04:02;16.70;99.90
3727;DHT22;1879;45.876;12.300;2023-05-14T07:06:29;16.80;99.90
3727;DHT22;1879;45.876;12.300;2023-05-14T07:08:57;16.90;99.90
3727;DHT22;1879;45.876;12.300;2023-05-14T07:11:24;17.00;99.90
3727;DHT22;1879;45.876;12.300;2023-05-14T07:13:51;17.20;99.90
3727;DHT22;1879;45.876;12.300;2023-05-14T07:16:18;17.30;99.90
3727;DHT22;1879;45.876;12.300;2023-05-14T07:18:45;17.40;99.90
3727;DHT22;1879;45.876;12.300;2023-05-14T07:21:13;17.30;99.90
3727;DHT22;1879;45.876;12.300;2023-05-14T07:23:41;17.20;99.90
3727;DHT22;1879;45.876;12.300;2023-05-14T07:26:08;17.10;99.90
3727;DHT22;1879;45.876;12.300;2023-05-14T07:28:35;17.10;99.90
3727;DHT22;1879;45.876;12.300;2023-05-14T07:31:02;17.20;99.90
3727;DHT22;1879;45.876;12.300;2023-05-14T07:33:33;17.20;99.90
3727;DHT22;1879;45.876;12.300;2023-05-14T07:36:00;17.20;99.90
3727;DHT22;1879;45.876;12.300;2023-05-14T07:38:28;17.20;99.90
3727;DHT22;1879;45.876;12.300;2023-05-14T07:40:55;17.10;99.90
3727;DHT22;1879;45.876;12.300;2023-05-14T07:43:23;17.00;99.90
3727;DHT22;1879;45.876;12.300;2023-05-14T07:45:50;17.00;99.90
3727;DHT22;1879;45.876;12.300;2023-05-14T07:48:17;16.90;99.90
3727;DHT22;1879;45.876;12.300;2023-05-14T07:50:44;16.80;99.90
3727;DHT22;1879;45.876;12.300;2023-05-14T07:53:11;16.90;99.90
3727;DHT22;1879;45.876;12.300;2023-05-14T07:55:39;16.90;99.90
3727;DHT22;1879;45.876;12.300;2023-05-14T07:58:08;16.80;99.90
3727;DHT22;1879;45.876;12.300;2023-05-14T08:00:36;16.80;99.90
3727;DHT22;1879;45.876;12.300;2023-05-14T08:03:02;16.80;99.90
3727;DHT22;1879;45.876;12.300;2023-05-14T08:05:29;16.80;99.90
3727;DHT22;1879;45.876;12.300;2023-05-14T08:07:57;16.80;99.90
3727;DHT22;1879;45.876;12.300;2023-05-14T08:10:24;16.80;99.90
3727;DHT22;1879;45.876;12.300;2023-05-14T08:12:52;16.80;99.90
3727;DHT22;1879;45.876;12.300;2023-05-14T08:15:19;16.80;99.90
3727;DHT22;1879;45.876;12.300;2023-05-14T08:17:46;16.80;99.90
3727;DHT22;1879;45.876;12.300;2023-05-14T08:20:13;16.90;99.90
3727;DHT22;1879;45.876;12.300;2023-05-14T08:22:43;17.00;99.90
3727;DHT22;1879;45.876;12.300;2023-05-14T08:25:10;17.10;99.90
3727;DHT22;1879;45.876;12.300;2023-05-14T08:27:37;17.30;99.90
3727;DHT22;1879;45.876;12.300;2023-05-14T08:30:06;17.40;99.90
3727;DHT22;1879;45.876;12.300;2023-05-14T08:32:34;17.40;99.90
3727;DHT22;1879;45.876;12.300;2023-05-14T08:35:03;17.40;99.90
3727;DHT22;1879;45.876;12.300;2023-05-14T08:37:30;17.50;99.90
3727;DHT22;1879;45.876;12.300;2023-05-14T08:39:57;17.50;99.90
3727;DHT22;1879;45.876;12.300;2023-05-14T08:42:24;17.50;99.90
3727;DHT22;1879;45.876;12.300;2023-05-14T08:44:59;17.50;99.90
3727;DHT22;1879;45.876;12.300;2023-05-14T08:47:28;17.60;99.90
3727;DHT22;1879;45.876;12.300;2023-05-14T08:50:00;17.50;99.90
3727;DHT22;1879;45.876;12.300;2023-05-14T08:52:28;17.50;99.90
3727;DHT22;1879;45.876;12.300;2023-05-14T08:54:56;17.40;99.90
3727;DHT22;1879;45.876;12.300;2023-05-14T08:57:25;17.40;99.90
3727;DHT22;1879;45.876;12.300;2023-05-14T08:59:52;17.40;99.90
3727;DHT22;1879;45.876;12.300;2023-05-14T09:02:21;17.30;99.90
3727;DHT22;1879;45.876;12.300;2023-05-14T09:04:53;17.30;99.90
3727;DHT22;1879;45.876;12.300;2023-05-14T09:07:20;17.40;99.90
3727;DHT22;1879;45.876;12.300;2023-05-14T09:09:48;17.40;99.90
3727;DHT22;1879;45.876;12.300;2023-05-14T09:12:15;17.40;99.90
3727;DHT22;1879;45.876;12.300;2023-05-14T09:14:43;17.40;99.90
3727;DHT22;1879;45.876;12.300;2023-05-14T09:17:10;17.50;99.90
3727;DHT22;1879;45.876;12.300;2023-05-14T09:19:38;17.40;99.90
3727;DHT22;1879;45.876;12.300;2023-05-14T09:22:10;17.30;99.90
3727;DHT22;1879;45.876;12.300;2023-05-14T09:24:38;17.20;99.90
3727;DHT22;1879;45.876;12.300;2023-05-14T09:27:07;17.10;99.90
3727;DHT22;1879;45.876;12.300;2023-05-14T09:29:34;17.10;99.90
3727;DHT22;1879;45.876;12.300;2023-05-14T09:32:01;17.10;99.90
3727;DHT22;1879;45.876;12.300;2023-05-14T09:34:33;17.00;99.90
3727;DHT22;1879;45.876;12.300;2023-05-14T09:37:04;17.00;99.90
3727;DHT22;1879;45.876;12.300;2023-05-14T09:39:34;16.90;99.90
3727;DHT22;1879;45.876;12.300;2023-05-14T09:42:02;16.90;99.90
3727;DHT22;1879;45.876;12.300;2023-05-14T09:44:29;16.80;99.90
3727;DHT22;1879;45.876;12.300;2023-05-14T09:46:57;16.70;99.90
3727;DHT22;1879;45.876;12.300;2023-05-14T09:49:24;16.50;99.90
3727;DHT22;1879;45.876;12.300;2023-05-14T09:51:51;16.50;99.90
3727;DHT22;1879;45.876;12.300;2023-05-14T09:54:18;16.50;99.90
3727;DHT22;1879;45.876;12.300;2023-05-14T09:56:46;16.50;99.90
3727;DHT22;1879;45.876;12.300;2023-05-14T09:59:13;16.40;99.90
3727;DHT22;1879;45.876;12.300;2023-05-14T10:01:42;16.30;99.90
3727;DHT22;1879;45.876;12.300;2023-05-14T10:04:10;16.20;99.90
3727;DHT22;1879;45.876;12.300;2023-05-14T10:06:38;16.10;99.90
3727;DHT22;1879;45.876;12.300;2023-05-14T10:09:09;15.90;99.90
3727;DHT22;1879;45.876;12.300;2023-05-14T10:11:38;15.70;99.90
3727;DHT22;1879;45.876;12.300;2023-05-14T10:14:13;15.70;99.90
3727;DHT22;1879;45.876;12.300;2023-05-14T10:16:45;15.70;99.90
3727;DHT22;1879;45.876;12.300;2023-05-14T10:19:14;15.60;99.90
3727;DHT22;1879;45.876;12.300;2023-05-14T10:21:47;15.60;99.90
3727;DHT22;1879;45.876;12.300;2023-05-14T10:24:14;15.70;99.90
3727;DHT22;1879;45.876;12.300;2023-05-14T10:26:44;15.70;99.90
3727;DHT22;1879;45.876;12.300;2023-05-14T10:29:13;15.80;99.90
3727;DHT22;1879;45.876;12.300;2023-05-14T10:31:49;15.70;99.90
3727;DHT22;1879;45.876;12.300;2023-05-14T10:34:35;15.70;99.90
3727;DHT22;1879;45.876;12.300;2023-05-14T10:37:08;15.70;99.90
3727;DHT22;1879;45.876;12.300;2023-05-14T10:39:46;15.70;99.90
3727;DHT22;1879;45.876;12.300;2023-05-14T10:42:16;15.70;99.90
3727;DHT22;1879;45.876;12.300;2023-05-14T10:44:50;15.60;99.90
3727;DHT22;1879;45.876;12.300;2023-05-14T10:47:18;15.50;99.90
3727;DHT22;1879;45.876;12.300;2023-05-14T10:49:46;15.50;99.90
3727;DHT22;1879;45.876;12.300;2023-05-14T10:52:16;15.40;99.90
3727;DHT22;1879;45.876;12.300;2023-05-14T10:54:51;15.30;99.90
3727;DHT22;1879;45.876;12.300;2023-05-14T10:57:20;15.20;99.90
3727;DHT22;1879;45.876;12.300;2023-05-14T10:59:50;15.20;99.90
3727;DHT22;1879;45.876;12.300;2023-05-14T11:02:21;15.30;99.90
3727;DHT22;1879;45.876;12.300;2023-05-14T11:04:56;15.40;99.90
3727;DHT22;1879;45.876;12.300;2023-05-14T11:07:29;15.50;99.90
3727;DHT22;1879;45.876;12.300;2023-05-14T11:10:02;15.60;99.90
3727;DHT22;1879;45.876;12.300;2023-05-14T11:12:30;15.70;99.90
3727;DHT22;1879;45.876;12.300;2023-05-14T11:14:59;15.60;99.90
3727;DHT22;1879;45.876;12.300;2023-05-14T11:17:29;15.50;99.90
3727;DHT22;1879;45.876;12.300;2023-05-14T11:19:57;15.50;99.90
3727;DHT22;1879;45.876;12.300;2023-05-14T11:22:24;15.50;99.90
3727;DHT22;1879;45.876;12.300;2023-05-14T11:24:52;15.60;99.90
3727;DHT22;1879;45.876;12.300;2023-05-14T11:27:20;15.90;99.90
3727;DHT22;1879;45.876;12.300;2023-05-14T11:29:48;16.30;99.90
3727;DHT22;1879;45.876;12.300;2023-05-14T11:32:17;16.80;99.90
3727;DHT22;1879;45.876;12.300;2023-05-14T11:34:45;17.20;99.90
3727;DHT22;1879;45.876;12.300;2023-05-14T11:37:13;17.70;99.90
3727;DHT22;1879;45.876;12.300;2023-05-14T11:39:46;17.90;99.90
3727;DHT22;1879;45.876;12.300;2023-05-14T11:42:13;18.10;99.90
3727;DHT22;1879;45.876;12.300;2023-05-14T11:44:43;18.30;99.90
3727;DHT22;1879;45.876;12.300;2023-05-14T11:47:10;18.40;99.90
3727;DHT22;1879;45.876;12.300;2023-05-14T11:49:39;18.40;99.90
3727;DHT22;1879;45.876;12.300;2023-05-14T11:52:08;18.50;99.90
3727;DHT22;1879;45.876;12.300;2023-05-14T11:54:36;18.40;99.90
3727;DHT22;1879;45.876;12.300;2023-05-14T11:57:08;18.40;99.90
3727;DHT22;1879;45.876;12.300;2023-05-14T11:59:35;18.40;99.90
3727;DHT22;1879;45.876;12.300;2023-05-14T12:02:03;18.60;99.90
3727;DHT22;1879;45.876;12.300;2023-05-14T12:04:31;18.90;99.90
3727;DHT22;1879;45.876;12.300;2023-05-14T12:07:03;19.00;99.90
3727;DHT22;1879;45.876;12.300;2023-05-14T12:09:35;19.10;99.90
3727;DHT22;1879;45.876;12.300;2023-05-14T12:12:07;19.30;99.90
3727;DHT22;1879;45.876;12.300;2023-05-14T12:14:37;19.60;99.90
3727;DHT22;1879;45.876;12.300;2023-05-14T12:17:13;20.10;99.90
3727;DHT22;1879;45.876;12.300;2023-05-14T12:19:40;20.60;99.90
3727;DHT22;1879;45.876;12.300;2023-05-14T12:22:10;21.20;99.90
3727;DHT22;1879;45.876;12.300;2023-05-14T12:24:37;21.40;99.90
3727;DHT22;1879;45.876;12.300;2023-05-14T12:27:08;21.30;99.90
3727;DHT22;1879;45.876;12.300;2023-05-14T12:29:36;21.10;99.90
3727;DHT22;1879;45.876;12.300;2023-05-14T12:32:07;20.70;99.90
3727;DHT22;1879;45.876;12.300;2023-05-14T12:34:36;20.30;99.90
3727;DHT22;1879;45.876;12.300;2023-05-14T12:37:03;20.00;99.90
3727;DHT22;1879;45.876;12.300;2023-05-14T12:39:32;19.90;99.90
3727;DHT22;1879;45.876;12.300;2023-05-14T12:41:59;19.90;99.90
3727;DHT22;1879;45.876;12.300;2023-05-14T12:44:26;19.90;99.90
3727;DHT22;1879;45.876;12.300;2023-05-14T12:46:53;20.20;99.90
3727;DHT22;1879;45.876;12.300;2023-05-14T12:49:20;20.30;99.90
3727;DHT22;1879;45.876;12.300;2023-05-14T12:51:47;20.30;99.90
3727;DHT22;1879;45.876;12.300;2023-05-14T12:54:14;20.20;99.90
3727;DHT22;1879;45.876;12.300;2023-05-14T12:56:43;20.00;99.90
3727;DHT22;1879;45.876;12.300;2023-05-14T12:59:10;19.70;99.90
3727;DHT22;1879;45.876;12.300;2023-05-14T13:01:37;19.50;99.90
3727;DHT22;1879;45.876;12.300;2023-05-14T13:04:04;19.30;99.90
3727;DHT22;1879;45.876;12.300;2023-05-14T13:06:32;19.20;99.90
3727;DHT22;1879;45.876;12.300;2023-05-14T13:08:59;19.20;99.90
3727;DHT22;1879;45.876;12.300;2023-05-14T13:11:27;19.30;99.90
3727;DHT22;1879;45.876;12.300;2023-05-14T13:13:57;19.40;99.90
3727;DHT22;1879;45.876;12.300;2023-05-14T13:16:25;19.50;99.90
3727;DHT22;1879;45.876;12.300;2023-05-14T13:18:52;19.80;99.90
3727;DHT22;1879;45.876;12.300;2023-05-14T13:21:19;20.10;99.90
3727;DHT22;1879;45.876;12.300;2023-05-14T13:23:46;20.30;99.90
3727;DHT22;1879;45.876;12.300;2023-05-14T13:26:13;20.40;99.90
3727;DHT22;1879;45.876;12.300;2023-05-14T13:28:40;20.50;99.90
3727;DHT22;1879;45.876;12.300;2023-05-14T13:31:10;20.80;99.90
3727;DHT22;1879;45.876;12.300;2023-05-14T13:33:40;21.10;99.90
3727;DHT22;1879;45.876;12.300;2023-05-14T13:36:10;21.20;99.90
3727;DHT22;1879;45.876;12.300;2023-05-14T13:38:37;21.20;99.90
3727;DHT22;1879;45.876;12.300;2023-05-14T13:41:05;21.10;99.90
3727;DHT22;1879;45.876;12.300;2023-05-14T13:43:33;21.00;99.90
3727;DHT22;1879;45.876;12.300;2023-05-14T13:46:01;21.10;99.90
3727;DHT22;1879;45.876;12.300;2023-05-14T13:48:29;21.20;99.90
3727;DHT22;1879;45.876;12.300;2023-05-14T13:50:57;21.20;99.90
3727;DHT22;1879;45.876;12.300;2023-05-14T13:53:24;21.00;99.90
3727;DHT22;1879;45.876;12.300;2023-05-14T13:55:51;20.80;99.90
3727;DHT22;1879;45.876;12.300;2023-05-14T13:58:21;20.50;99.90
3727;DHT22;1879;45.876;12.300;2023-05-14T14:00:49;20.50;99.90
3727;DHT22;1879;45.876;12.300;2023-05-14T14:03:16;20.40;99.90
3727;DHT22;1879;45.876;12.300;2023-05-14T14:05:44;20.40;99.90
3727;DHT22;1879;45.876;12.300;2023-05-14T14:08:11;20.30;99.90
3727;DHT22;1879;45.876;12.300;2023-05-14T14:10:38;20.20;99.90
3727;DHT22;1879;45.876;12.300;2023-05-14T14:13:07;20.30;99.90
3727;DHT22;1879;45.876;12.300;2023-05-14T14:15:34;20.40;99.90
3727;DHT22;1879;45.876;12.300;2023-05-14T14:18:01;20.30;99.90
3727;DHT22;1879;45.876;12.300;2023-05-14T14:20:28;20.10;99.90
3727;DHT22;1879;45.876;12.300;2023-05-14T14:22:57;20.10;99.90
3727;DHT22;1879;45.876;12.300;2023-05-14T14:25:25;20.30;99.90
3727;DHT22;1879;45.876;12.300;2023-05-14T14:27:53;20.40;99.90
3727;DHT22;1879;45.876;12.300;2023-05-14T14:30:20;20.40;99.90
3727;DHT22;1879;45.876;12.300;2023-05-14T14:32:48;20.60;99.90
3727;DHT22;1879;45.876;12.300;2023-05-14T14:35:16;20.60;99.90
3727;DHT22;1879;45.876;12.300;2023-05-14T14:37:44;20.60;99.90
3727;DHT22;1879;45.876;12.300;2023-05-14T14:40:15;20.70;99.90
3727;DHT22;1879;45.876;12.300;2023-05-14T14:42:43;21.10;99.90
3727;DHT22;1879;45.876;12.300;2023-05-14T14:45:10;21.30;99.90
3727;DHT22;1879;45.876;12.300;2023-05-14T14:47:41;21.50;99.90
3727;DHT22;1879;45.876;12.300;2023-05-14T14:50:08;21.60;99.90
3727;DHT22;1879;45.876;12.300;2023-05-14T14:52:35;21.60;99.90
3727;DHT22;1879;45.876;12.300;2023-05-14T14:55:03;21.50;99.90
3727;DHT22;1879;45.876;12.300;2023-05-14T14:57:31;21.30;99.90
3727;DHT22;1879;45.876;12.300;2023-05-14T14:59:58;20.90;99.80
3727;DHT22;1879;45.876;12.300;2023-05-14T15:02:28;20.50;99.90
3727;DHT22;1879;45.876;12.300;2023-05-14T15:04:55;20.20;99.90
3727;DHT22;1879;45.876;12.300;2023-05-14T15:07:22;20.00;99.90
3727;DHT22;1879;45.876;12.300;2023-05-14T15:09:49;19.90;99.90
3727;DHT22;1879;45.876;12.300;2023-05-14T15:12:16;19.60;99.90
3727;DHT22;1879;45.876;12.300;2023-05-14T15:14:46;19.40;99.90
3727;DHT22;1879;45.876;12.300;2023-05-14T15:17:13;19.30;99.90
3727;DHT22;1879;45.876;12.300;2023-05-14T15:19:40;19.30;99.90
3727;DHT22;1879;45.876;12.300;2023-05-14T15:22:07;19.10;99.90
3727;DHT22;1879;45.876;12.300;2023-05-14T15:24:34;19.00;99.90
3727;DHT22;1879;45.876;12.300;2023-05-14T15:27:01;19.00;99.90
3727;DHT22;1879;45.876;12.300;2023-05-14T15:29:28;18.80;99.90
3727;DHT22;1879;45.876;12.300;2023-05-14T15:31:57;18.80;99.90
3727;DHT22;1879;45.876;12.300;2023-05-14T15:34:24;18.80;99.90
3727;DHT22;1879;45.876;12.300;2023-05-14T15:36:51;18.70;99.90
3727;DHT22;1879;45.876;12.300;2023-05-14T15:39:18;18.70;99.90
3727;DHT22;1879;45.876;12.300;2023-05-14T15:41:45;18.60;99.90
3727;DHT22;1879;45.876;12.300;2023-05-14T15:44:12;18.60;99.90
3727;DHT22;1879;45.876;12.300;2023-05-14T15:46:39;18.50;99.90
3727;DHT22;1879;45.876;12.300;2023-05-14T15:49:07;18.50;99.90
3727;DHT22;1879;45.876;12.300;2023-05-14T15:51:34;18.50;99.90
3727;DHT22;1879;45.876;12.300;2023-05-14T15:54:01;18.50;99.90
3727;DHT22;1879;45.876;12.300;2023-05-14T15:56:29;18.50;99.90
3727;DHT22;1879;45.876;12.300;2023-05-14T15:58:56;18.50;99.90